Yelizovo, Russia
Current Conditions -  °F | °C
As of 7:30 PM on Wednesday 26 Nov 2014 (Local Time) from UHPP Reporting Station
Clear Clear  
Wind Chill: 15°   Ceiling: Unl
Heat Index: 27°   Visibility: 6mi
Dew Point:   Wind: 13mph
Humidity: 43%   Direction: 340°NNW
Pressure: 29.68"   Gusts: NA
Location:  53.18°N, 158.38°E
Report Text: UHPP 260730Z 34006MPS 9999 NSC M03/M14 Q1005 NOSIG RMKQFE750/1000 SC070
Loading
Personal Weather Stations






























Interactive Weather Map New forecast layout! Learn more

10-Day Weather Forecast

Advertisements
Track Severe Weather on mobile